sensor_id;sensor_type;location;lat;lon;timestamp;P1;durP1;ratioP1;P2;durP2;ratioP2
33993;SDS011;20673;48.980;8.138;2023-09-19T00:00:45;3.03;;;2.40;;
33993;SDS011;20673;48.980;8.138;2023-09-19T00:03:15;7.30;;;4.37;;
33993;SDS011;20673;48.980;8.138;2023-09-19T00:05:41;5.67;;;3.60;;
33993;SDS011;20673;48.980;8.138;2023-09-19T00:08:09;4.83;;;2.77;;
33993;SDS011;20673;48.980;8.138;2023-09-19T00:10:35;4.22;;;2.58;;
33993;SDS011;20673;48.980;8.138;2023-09-19T00:13:03;5.23;;;2.80;;
33993;SDS011;20673;48.980;8.138;2023-09-19T00:15:40;6.00;;;2.62;;
33993;SDS011;20673;48.980;8.138;2023-09-19T00:18:11;7.10;;;2.83;;
33993;SDS011;20673;48.980;8.138;2023-09-19T00:20:39;3.93;;;2.10;;
33993;SDS011;20673;48.980;8.138;2023-09-19T00:23:07;5.43;;;1.80;;
33993;SDS011;20673;48.980;8.138;2023-09-19T00:25:34;8.03;;;1.80;;
33993;SDS011;20673;48.980;8.138;2023-09-19T00:28:04;3.27;;;1.35;;
33993;SDS011;20673;48.980;8.138;2023-09-19T00:30:32;3.00;;;1.80;;
33993;SDS011;20673;48.980;8.138;2023-09-19T00:33:00;3.35;;;1.45;;
33993;SDS011;20673;48.980;8.138;2023-09-19T00:35:27;3.67;;;1.50;;
33993;SDS011;20673;48.980;8.138;2023-09-19T00:37:53;3.58;;;1.40;;
33993;SDS011;20673;48.980;8.138;2023-09-19T00:40:21;2.80;;;1.43;;
33993;SDS011;20673;48.980;8.138;2023-09-19T00:42:47;3.95;;;1.45;;
33993;SDS011;20673;48.980;8.138;2023-09-19T00:45:15;1.20;;;0.90;;
33993;SDS011;20673;48.980;8.138;2023-09-19T00:47:44;1.43;;;1.10;;
33993;SDS011;20673;48.980;8.138;2023-09-19T00:50:22;3.27;;;1.20;;
33993;SDS011;20673;48.980;8.138;2023-09-19T00:52:50;6.87;;;1.30;;
33993;SDS011;20673;48.980;8.138;2023-09-19T00:55:23;4.87;;;1.23;;
33993;SDS011;20673;48.980;8.138;2023-09-19T00:57:51;4.22;;;1.00;;
33993;SDS011;20673;48.980;8.138;2023-09-19T01:00:18;1.80;;;1.07;;
33993;SDS011;20673;48.980;8.138;2023-09-19T01:02:45;1.70;;;1.07;;
33993;SDS011;20673;48.980;8.138;2023-09-19T01:05:12;6.70;;;2.20;;
33993;SDS011;20673;48.980;8.138;2023-09-19T01:07:38;2.10;;;1.40;;
33993;SDS011;20673;48.980;8.138;2023-09-19T01:10:14;4.47;;;1.25;;
33993;SDS011;20673;48.980;8.138;2023-09-19T01:12:53;4.50;;;1.15;;
33993;SDS011;20673;48.980;8.138;2023-09-19T01:15:47;3.67;;;1.15;;
33993;SDS011;20673;48.980;8.138;2023-09-19T01:27:41;3.75;;;1.80;;
33993;SDS011;20673;48.980;8.138;2023-09-19T01:30:16;2.77;;;1.55;;
33993;SDS011;20673;48.980;8.138;2023-09-19T01:32:49;2.17;;;1.30;;
33993;SDS011;20673;48.980;8.138;2023-09-19T01:35:18;4.60;;;1.70;;
33993;SDS011;20673;48.980;8.138;2023-09-19T01:37:44;2.40;;;2.08;;
33993;SDS011;20673;48.980;8.138;2023-09-19T01:40:14;2.42;;;2.05;;
33993;SDS011;20673;48.980;8.138;2023-09-19T01:48:35;3.93;;;1.00;;
33993;SDS011;20673;48.980;8.138;2023-09-19T01:51:24;3.27;;;1.25;;
33993;SDS011;20673;48.980;8.138;2023-09-19T01:54:03;7.03;;;1.45;;
33993;SDS011;20673;48.980;8.138;2023-09-19T01:56:38;3.15;;;1.07;;
33993;SDS011;20673;48.980;8.138;2023-09-19T01:59:32;2.73;;;1.47;;
33993;SDS011;20673;48.980;8.138;2023-09-19T02:02:01;4.97;;;1.85;;
33993;SDS011;20673;48.980;8.138;2023-09-19T02:04:32;4.30;;;1.73;;
33993;SDS011;20673;48.980;8.138;2023-09-19T02:07:00;4.08;;;1.87;;
33993;SDS011;20673;48.980;8.138;2023-09-19T02:09:28;5.40;;;1.77;;
33993;SDS011;20673;48.980;8.138;2023-09-19T02:11:54;6.42;;;1.55;;
33993;SDS011;20673;48.980;8.138;2023-09-19T02:14:21;2.55;;;1.50;;
33993;SDS011;20673;48.980;8.138;2023-09-19T02:16:48;2.90;;;1.60;;
33993;SDS011;20673;48.980;8.138;2023-09-19T02:19:15;1.83;;;1.43;;
33993;SDS011;20673;48.980;8.138;2023-09-19T02:21:42;3.98;;;1.65;;
33993;SDS011;20673;48.980;8.138;2023-09-19T02:24:08;5.50;;;1.87;;
33993;SDS011;20673;48.980;8.138;2023-09-19T02:26:35;4.10;;;1.67;;
33993;SDS011;20673;48.980;8.138;2023-09-19T02:29:02;5.58;;;3.40;;
33993;SDS011;20673;48.980;8.138;2023-09-19T02:31:30;7.97;;;3.20;;
33993;SDS011;20673;48.980;8.138;2023-09-19T02:33:56;4.80;;;3.60;;
33993;SDS011;20673;48.980;8.138;2023-09-19T02:36:23;9.00;;;1.97;;
33993;SDS011;20673;48.980;8.138;2023-09-19T02:38:49;4.57;;;2.20;;
33993;SDS011;20673;48.980;8.138;2023-09-19T02:41:15;4.17;;;1.70;;
33993;SDS011;20673;48.980;8.138;2023-09-19T02:43:41;3.77;;;1.70;;
33993;SDS011;20673;48.980;8.138;2023-09-19T02:46:08;6.37;;;2.08;;
33993;SDS011;20673;48.980;8.138;2023-09-19T02:48:34;3.77;;;1.62;;
33993;SDS011;20673;48.980;8.138;2023-09-19T02:51:01;5.23;;;1.50;;
33993;SDS011;20673;48.980;8.138;2023-09-19T02:53:29;3.85;;;1.35;;
33993;SDS011;20673;48.980;8.138;2023-09-19T02:55:57;6.87;;;2.23;;
33993;SDS011;20673;48.980;8.138;2023-09-19T02:58:24;2.83;;;1.70;;
33993;SDS011;20673;48.980;8.138;2023-09-19T03:00:50;3.67;;;1.50;;
33993;SDS011;20673;48.980;8.138;2023-09-19T03:03:17;2.57;;;1.57;;
33993;SDS011;20673;48.980;8.138;2023-09-19T03:05:44;2.97;;;1.93;;
33993;SDS011;20673;48.980;8.138;2023-09-19T03:08:12;6.63;;;1.50;;
33993;SDS011;20673;48.980;8.138;2023-09-19T03:10:42;3.67;;;1.37;;
33993;SDS011;20673;48.980;8.138;2023-09-19T03:13:14;2.17;;;1.60;;
33993;SDS011;20673;48.980;8.138;2023-09-19T03:15:43;5.60;;;1.90;;
33993;SDS011;20673;48.980;8.138;2023-09-19T03:18:11;2.70;;;1.62;;
33993;SDS011;20673;48.980;8.138;2023-09-19T03:20:38;5.85;;;1.92;;
33993;SDS011;20673;48.980;8.138;2023-09-19T03:23:04;5.67;;;2.27;;
33993;SDS011;20673;48.980;8.138;2023-09-19T03:25:34;9.23;;;2.10;;
33993;SDS011;20673;48.980;8.138;2023-09-19T03:28:02;4.10;;;1.90;;
33993;SDS011;20673;48.980;8.138;2023-09-19T03:30:31;3.27;;;1.80;;
33993;SDS011;20673;48.980;8.138;2023-09-19T03:33:00;4.25;;;1.77;;
33993;SDS011;20673;48.980;8.138;2023-09-19T03:35:27;3.33;;;1.80;;
33993;SDS011;20673;48.980;8.138;2023-09-19T03:37:53;7.78;;;1.70;;
33993;SDS011;20673;48.980;8.138;2023-09-19T03:40:19;3.20;;;1.92;;
33993;SDS011;20673;48.980;8.138;2023-09-19T03:42:47;5.00;;;1.80;;
33993;SDS011;20673;48.980;8.138;2023-09-19T03:45:13;4.85;;;2.25;;
33993;SDS011;20673;48.980;8.138;2023-09-19T03:47:41;2.47;;;2.00;;
33993;SDS011;20673;48.980;8.138;2023-09-19T03:50:08;6.35;;;2.05;;
33993;SDS011;20673;48.980;8.138;2023-09-19T03:52:37;2.58;;;1.82;;
33993;SDS011;20673;48.980;8.138;2023-09-19T03:55:03;5.67;;;1.92;;
33993;SDS011;20673;48.980;8.138;2023-09-19T03:57:31;3.12;;;2.12;;
33993;SDS011;20673;48.980;8.138;2023-09-19T03:59:57;4.30;;;2.10;;
33993;SDS011;20673;48.980;8.138;2023-09-19T04:02:26;3.83;;;1.85;;
33993;SDS011;20673;48.980;8.138;2023-09-19T04:04:56;6.53;;;2.17;;
33993;SDS011;20673;48.980;8.138;2023-09-19T04:07:23;5.95;;;2.90;;
33993;SDS011;20673;48.980;8.138;2023-09-19T04:09:51;8.03;;;4.15;;
33993;SDS011;20673;48.980;8.138;2023-09-19T04:12:21;4.62;;;2.60;;
33993;SDS011;20673;48.980;8.138;2023-09-19T04:14:47;10.30;;;2.60;;
33993;SDS011;20673;48.980;8.138;2023-09-19T04:17:15;7.30;;;2.00;;
33993;SDS011;20673;48.980;8.138;2023-09-19T04:19:41;6.63;;;2.40;;
33993;SDS011;20673;48.980;8.138;2023-09-19T04:22:07;2.90;;;1.80;;
33993;SDS011;20673;48.980;8.138;2023-09-19T04:24:34;4.20;;;2.17;;
33993;SDS011;20673;48.980;8.138;2023-09-19T04:27:00;5.07;;;1.87;;
33993;SDS011;20673;48.980;8.138;2023-09-19T04:29:27;5.33;;;2.10;;
33993;SDS011;20673;48.980;8.138;2023-09-19T04:31:54;5.25;;;1.85;;
33993;SDS011;20673;48.980;8.138;2023-09-19T04:34:22;5.73;;;2.33;;
33993;SDS011;20673;48.980;8.138;2023-09-19T04:36:49;3.87;;;2.10;;
33993;SDS011;20673;48.980;8.138;2023-09-19T04:39:16;4.77;;;1.90;;
33993;SDS011;20673;48.980;8.138;2023-09-19T04:41:43;5.97;;;1.77;;
33993;SDS011;20673;48.980;8.138;2023-09-19T04:44:11;4.00;;;2.03;;
33993;SDS011;20673;48.980;8.138;2023-09-19T04:46:39;5.03;;;2.23;;
33993;SDS011;20673;48.980;8.138;2023-09-19T04:49:05;3.03;;;1.87;;
33993;SDS011;20673;48.980;8.138;2023-09-19T04:51:31;2.58;;;1.62;;
33993;SDS011;20673;48.980;8.138;2023-09-19T04:53:59;5.10;;;1.80;;
33993;SDS011;20673;48.980;8.138;2023-09-19T04:56:25;6.42;;;2.65;;
33993;SDS011;20673;48.980;8.138;2023-09-19T04:58:53;2.97;;;1.97;;
33993;SDS011;20673;48.980;8.138;2023-09-19T05:01:20;4.40;;;2.40;;
33993;SDS011;20673;48.980;8.138;2023-09-19T05:03:48;5.87;;;2.40;;
33993;SDS011;20673;48.980;8.138;2023-09-19T05:06:18;3.87;;;2.57;;
33993;SDS011;20673;48.980;8.138;2023-09-19T05:08:48;4.30;;;2.30;;
33993;SDS011;20673;48.980;8.138;2023-09-19T05:11:19;4.33;;;2.70;;
33993;SDS011;20673;48.980;8.138;2023-09-19T05:13:47;3.67;;;2.20;;
33993;SDS011;20673;48.980;8.138;2023-09-19T05:16:15;3.02;;;2.12;;
33993;SDS011;20673;48.980;8.138;2023-09-19T05:18:42;2.75;;;2.50;;
33993;SDS011;20673;48.980;8.138;2023-09-19T05:21:08;4.13;;;2.67;;
33993;SDS011;20673;48.980;8.138;2023-09-19T05:23:34;4.53;;;2.42;;
33993;SDS011;20673;48.980;8.138;2023-09-19T05:26:00;3.92;;;1.92;;
33993;SDS011;20673;48.980;8.138;2023-09-19T05:28:27;6.40;;;2.20;;
33993;SDS011;20673;48.980;8.138;2023-09-19T05:30:53;4.23;;;1.80;;
33993;SDS011;20673;48.980;8.138;2023-09-19T05:33:19;6.30;;;2.45;;
33993;SDS011;20673;48.980;8.138;2023-09-19T05:35:47;6.92;;;2.00;;
33993;SDS011;20673;48.980;8.138;2023-09-19T05:38:14;5.03;;;2.30;;
33993;SDS011;20673;48.980;8.138;2023-09-19T05:40:42;4.22;;;2.10;;
33993;SDS011;20673;48.980;8.138;2023-09-19T05:43:08;5.35;;;2.33;;
33993;SDS011;20673;48.980;8.138;2023-09-19T05:45:34;6.40;;;1.90;;
33993;SDS011;20673;48.980;8.138;2023-09-19T05:48:12;9.00;;;2.50;;
33993;SDS011;20673;48.980;8.138;2023-09-19T05:50:39;2.92;;;1.87;;
33993;SDS011;20673;48.980;8.138;2023-09-19T05:53:06;4.37;;;1.77;;
33993;SDS011;20673;48.980;8.138;2023-09-19T05:55:32;4.47;;;1.90;;
33993;SDS011;20673;48.980;8.138;2023-09-19T05:57:59;6.65;;;2.30;;
33993;SDS011;20673;48.980;8.138;2023-09-19T06:00:25;4.05;;;1.90;;
33993;SDS011;20673;48.980;8.138;2023-09-19T06:02:57;3.62;;;2.30;;
33993;SDS011;20673;48.980;8.138;2023-09-19T06:05:25;5.75;;;2.30;;
33993;SDS011;20673;48.980;8.138;2023-09-19T06:07:53;7.45;;;2.60;;
33993;SDS011;20673;48.980;8.138;2023-09-19T06:10:19;7.12;;;2.75;;
33993;SDS011;20673;48.980;8.138;2023-09-19T06:12:46;4.60;;;2.37;;
33993;SDS011;20673;48.980;8.138;2023-09-19T06:15:13;4.90;;;2.40;;
33993;SDS011;20673;48.980;8.138;2023-09-19T06:17:42;4.33;;;2.00;;
33993;SDS011;20673;48.980;8.138;2023-09-19T06:20:22;4.85;;;2.30;;
33993;SDS011;20673;48.980;8.138;2023-09-19T06:22:51;5.40;;;2.37;;
33993;SDS011;20673;48.980;8.138;2023-09-19T06:25:18;3.08;;;1.72;;
33993;SDS011;20673;48.980;8.138;2023-09-19T06:27:45;4.30;;;1.93;;
33993;SDS011;20673;48.980;8.138;2023-09-19T06:30:12;9.45;;;2.52;;
33993;SDS011;20673;48.980;8.138;2023-09-19T06:32:43;6.90;;;2.10;;
33993;SDS011;20673;48.980;8.138;2023-09-19T06:35:14;3.83;;;1.87;;
33993;SDS011;20673;48.980;8.138;2023-09-19T06:37:39;4.92;;;2.10;;
33993;SDS011;20673;48.980;8.138;2023-09-19T06:40:10;7.37;;;2.27;;
33993;SDS011;20673;48.980;8.138;2023-09-19T06:42:41;6.42;;;2.12;;
33993;SDS011;20673;48.980;8.138;2023-09-19T06:45:18;6.27;;;2.23;;
33993;SDS011;20673;48.980;8.138;2023-09-19T06:47:44;6.00;;;2.12;;
33993;SDS011;20673;48.980;8.138;2023-09-19T06:50:11;5.67;;;1.92;;
33993;SDS011;20673;48.980;8.138;2023-09-19T06:52:41;5.77;;;1.83;;
33993;SDS011;20673;48.980;8.138;2023-09-19T06:55:07;4.72;;;1.70;;
33993;SDS011;20673;48.980;8.138;2023-09-19T06:57:36;5.35;;;1.95;;
33993;SDS011;20673;48.980;8.138;2023-09-19T07:00:02;5.10;;;1.90;;
33993;SDS011;20673;48.980;8.138;2023-09-19T07:02:30;6.55;;;1.77;;
33993;SDS011;20673;48.980;8.138;2023-09-19T07:04:56;3.45;;;1.92;;
33993;SDS011;20673;48.980;8.138;2023-09-19T07:07:23;2.90;;;1.70;;
33993;SDS011;20673;48.980;8.138;2023-09-19T07:09:49;5.60;;;2.20;;
33993;SDS011;20673;48.980;8.138;2023-09-19T07:12:16;4.00;;;1.37;;
33993;SDS011;20673;48.980;8.138;2023-09-19T07:14:43;5.60;;;1.77;;
33993;SDS011;20673;48.980;8.138;2023-09-19T07:17:09;4.20;;;1.43;;
33993;SDS011;20673;48.980;8.138;2023-09-19T07:19:35;3.87;;;1.40;;
33993;SDS011;20673;48.980;8.138;2023-09-19T07:22:01;3.03;;;1.23;;
33993;SDS011;20673;48.980;8.138;2023-09-19T07:24:28;1.33;;;1.10;;
33993;SDS011;20673;48.980;8.138;2023-09-19T07:26:55;3.73;;;1.20;;
33993;SDS011;20673;48.980;8.138;2023-09-19T07:29:21;5.03;;;1.50;;
33993;SDS011;20673;48.980;8.138;2023-09-19T07:31:47;9.97;;;1.60;;
33993;SDS011;20673;48.980;8.138;2023-09-19T07:34:13;2.40;;;1.20;;
33993;SDS011;20673;48.980;8.138;2023-09-19T07:36:39;2.85;;;1.15;;
33993;SDS011;20673;48.980;8.138;2023-09-19T07:39:07;2.13;;;0.93;;
33993;SDS011;20673;48.980;8.138;2023-09-19T07:41:33;2.03;;;1.10;;
33993;SDS011;20673;48.980;8.138;2023-09-19T07:43:59;5.53;;;1.20;;
33993;SDS011;20673;48.980;8.138;2023-09-19T07:46:26;5.60;;;1.12;;
33993;SDS011;20673;48.980;8.138;2023-09-19T07:48:52;4.83;;;1.20;;
33993;SDS011;20673;48.980;8.138;2023-09-19T07:51:18;4.30;;;1.50;;
33993;SDS011;20673;48.980;8.138;2023-09-19T07:53:44;3.63;;;1.03;;
33993;SDS011;20673;48.980;8.138;2023-09-19T07:56:10;3.97;;;1.10;;
33993;SDS011;20673;48.980;8.138;2023-09-19T07:58:38;2.00;;;1.05;;
33993;SDS011;20673;48.980;8.138;2023-09-19T08:01:08;4.37;;;1.22;;
33993;SDS011;20673;48.980;8.138;2023-09-19T08:03:36;2.00;;;0.83;;
33993;SDS011;20673;48.980;8.138;2023-09-19T08:06:04;3.60;;;0.95;;
33993;SDS011;20673;48.980;8.138;2023-09-19T08:08:32;2.50;;;0.90;;
33993;SDS011;20673;48.980;8.138;2023-09-19T08:11:03;2.42;;;0.80;;
33993;SDS011;20673;48.980;8.138;2023-09-19T08:13:35;2.13;;;0.80;;
33993;SDS011;20673;48.980;8.138;2023-09-19T08:16:03;3.22;;;0.72;;
33993;SDS011;20673;48.980;8.138;2023-09-19T08:18:31;2.40;;;0.90;;
33993;SDS011;20673;48.980;8.138;2023-09-19T08:20:57;3.13;;;1.03;;
33993;SDS011;20673;48.980;8.138;2023-09-19T08:23:25;2.10;;;1.03;;
33993;SDS011;20673;48.980;8.138;2023-09-19T08:25:55;2.03;;;0.80;;
33993;SDS011;20673;48.980;8.138;2023-09-19T08:28:23;2.55;;;0.70;;
33993;SDS011;20673;48.980;8.138;2023-09-19T08:30:50;2.00;;;0.93;;
33993;SDS011;20673;48.980;8.138;2023-09-19T08:33:16;2.90;;;0.83;;
33993;SDS011;20673;48.980;8.138;2023-09-19T08:35:42;2.93;;;0.80;;
33993;SDS011;20673;48.980;8.138;2023-09-19T08:38:10;2.27;;;0.80;;
33993;SDS011;20673;48.980;8.138;2023-09-19T08:40:37;2.80;;;1.17;;
33993;SDS011;20673;48.980;8.138;2023-09-19T08:43:09;3.58;;;1.25;;
33993;SDS011;20673;48.980;8.138;2023-09-19T08:45:36;2.25;;;1.00;;
33993;SDS011;20673;48.980;8.138;2023-09-19T08:51:00;4.08;;;1.07;;
33993;SDS011;20673;48.980;8.138;2023-09-19T08:53:35;1.50;;;0.70;;
33993;SDS011;20673;48.980;8.138;2023-09-19T08:56:24;4.80;;;0.80;;
33993;SDS011;20673;48.980;8.138;2023-09-19T08:58:55;4.80;;;1.35;;
33993;SDS011;20673;48.980;8.138;2023-09-19T09:01:29;2.05;;;0.90;;
33993;SDS011;20673;48.980;8.138;2023-09-19T09:03:57;4.00;;;1.10;;
33993;SDS011;20673;48.980;8.138;2023-09-19T09:06:25;2.37;;;1.22;;
33993;SDS011;20673;48.980;8.138;2023-09-19T09:08:53;3.10;;;1.10;;
33993;SDS011;20673;48.980;8.138;2023-09-19T09:11:20;6.30;;;0.90;;
33993;SDS011;20673;48.980;8.138;2023-09-19T09:13:49;2.87;;;1.12;;
33993;SDS011;20673;48.980;8.138;2023-09-19T09:16:15;4.50;;;1.30;;
33993;SDS011;20673;48.980;8.138;2023-09-19T09:18:44;5.05;;;1.30;;
33993;SDS011;20673;48.980;8.138;2023-09-19T09:21:14;4.78;;;1.10;;
33993;SDS011;20673;48.980;8.138;2023-09-19T09:23:41;1.90;;;1.00;;
33993;SDS011;20673;48.980;8.138;2023-09-19T09:26:07;3.02;;;1.00;;
33993;SDS011;20673;48.980;8.138;2023-09-19T09:28:34;2.62;;;0.90;;
33993;SDS011;20673;48.980;8.138;2023-09-19T09:31:03;4.20;;;1.07;;
33993;SDS011;20673;48.980;8.138;2023-09-19T09:33:31;2.87;;;0.95;;
33993;SDS011;20673;48.980;8.138;2023-09-19T09:35:57;3.55;;;1.00;;
33993;SDS011;20673;48.980;8.138;2023-09-19T09:38:26;3.40;;;1.02;;
33993;SDS011;20673;48.980;8.138;2023-09-19T09:40:58;1.65;;;0.90;;
33993;SDS011;20673;48.980;8.138;2023-09-19T09:43:32;2.65;;;1.10;;
33993;SDS011;20673;48.980;8.138;2023-09-19T09:46:10;3.50;;;1.22;;
33993;SDS011;20673;48.980;8.138;2023-09-19T09:49:02;4.83;;;1.12;;
33993;SDS011;20673;48.980;8.138;2023-09-19T09:51:49;2.50;;;1.20;;
33993;SDS011;20673;48.980;8.138;2023-09-19T09:54:35;5.67;;;1.50;;
33993;SDS011;20673;48.980;8.138;2023-09-19T09:57:10;4.03;;;1.27;;
33993;SDS011;20673;48.980;8.138;2023-09-19T09:59:49;3.00;;;1.12;;
33993;SDS011;20673;48.980;8.138;2023-09-19T10:02:20;4.00;;;1.00;;
33993;SDS011;20673;48.980;8.138;2023-09-19T10:04:57;3.85;;;1.27;;
33993;SDS011;20673;48.980;8.138;2023-09-19T10:07:39;3.52;;;1.27;;
33993;SDS011;20673;48.980;8.138;2023-09-19T10:10:07;4.12;;;1.30;;
33993;SDS011;20673;48.980;8.138;2023-09-19T10:12:47;3.65;;;1.10;;
33993;SDS011;20673;48.980;8.138;2023-09-19T10:15:16;2.62;;;1.20;;
33993;SDS011;20673;48.980;8.138;2023-09-19T10:17:46;4.97;;;1.42;;
33993;SDS011;20673;48.980;8.138;2023-09-19T10:20:13;5.35;;;1.45;;
33993;SDS011;20673;48.980;8.138;2023-09-19T10:22:50;2.33;;;0.90;;
33993;SDS011;20673;48.980;8.138;2023-09-19T10:25:19;4.45;;;1.42;;
33993;SDS011;20673;48.980;8.138;2023-09-19T10:27:48;4.33;;;1.00;;
33993;SDS011;20673;48.980;8.138;2023-09-19T10:30:19;3.27;;;0.87;;
33993;SDS011;20673;48.980;8.138;2023-09-19T10:32:48;3.92;;;1.10;;
33993;SDS011;20673;48.980;8.138;2023-09-19T10:35:25;4.37;;;1.50;;
33993;SDS011;20673;48.980;8.138;2023-09-19T10:37:54;4.62;;;1.20;;
33993;SDS011;20673;48.980;8.138;2023-09-19T10:40:24;5.10;;;1.25;;
33993;SDS011;20673;48.980;8.138;2023-09-19T10:42:55;4.70;;;1.70;;
33993;SDS011;20673;48.980;8.138;2023-09-19T10:45:34;2.50;;;1.00;;
33993;SDS011;20673;48.980;8.138;2023-09-19T10:48:03;9.60;;;1.70;;
33993;SDS011;20673;48.980;8.138;2023-09-19T10:50:31;3.20;;;1.20;;
33993;SDS011;20673;48.980;8.138;2023-09-19T10:53:11;5.33;;;1.37;;
33993;SDS011;20673;48.980;8.138;2023-09-19T10:55:40;4.37;;;1.60;;
33993;SDS011;20673;48.980;8.138;2023-09-19T10:58:32;3.15;;;1.12;;
33993;SDS011;20673;48.980;8.138;2023-09-19T11:01:02;2.55;;;1.20;;
33993;SDS011;20673;48.980;8.138;2023-09-19T11:03:32;6.25;;;1.35;;
33993;SDS011;20673;48.980;8.138;2023-09-19T11:06:14;3.30;;;1.27;;
33993;SDS011;20673;48.980;8.138;2023-09-19T11:11:44;3.58;;;1.37;;
33993;SDS011;20673;48.980;8.138;2023-09-19T11:30:44;4.53;;;1.47;;
33993;SDS011;20673;48.980;8.138;2023-09-19T11:33:17;4.33;;;1.12;;
33993;SDS011;20673;48.980;8.138;2023-09-19T11:36:03;2.77;;;1.00;;
33993;SDS011;20673;48.980;8.138;2023-09-19T11:46:33;2.85;;;1.45;;
33993;SDS011;20673;48.980;8.138;2023-09-19T11:49:06;4.15;;;1.10;;
33993;SDS011;20673;48.980;8.138;2023-09-19T11:51:41;2.27;;;0.82;;
33993;SDS011;20673;48.980;8.138;2023-09-19T11:54:13;3.77;;;1.10;;
33993;SDS011;20673;48.980;8.138;2023-09-19T11:56:42;4.78;;;1.17;;
33993;SDS011;20673;48.980;8.138;2023-09-19T11:59:10;2.40;;;0.80;;
33993;SDS011;20673;48.980;8.138;2023-09-19T12:01:37;2.55;;;0.95;;
33993;SDS011;20673;48.980;8.138;2023-09-19T12:04:08;3.65;;;1.25;;
33993;SDS011;20673;48.980;8.138;2023-09-19T12:06:37;1.37;;;0.82;;
33993;SDS011;20673;48.980;8.138;2023-09-19T12:09:11;2.33;;;1.13;;
33993;SDS011;20673;48.980;8.138;2023-09-19T12:11:41;2.58;;;1.22;;
33993;SDS011;20673;48.980;8.138;2023-09-19T12:14:11;2.50;;;1.17;;
33993;SDS011;20673;48.980;8.138;2023-09-19T12:16:50;2.50;;;1.02;;
33993;SDS011;20673;48.980;8.138;2023-09-19T12:19:21;2.42;;;1.10;;
33993;SDS011;20673;48.980;8.138;2023-09-19T12:21:58;2.47;;;1.07;;
33993;SDS011;20673;48.980;8.138;2023-09-19T12:24:34;2.67;;;1.17;;
33993;SDS011;20673;48.980;8.138;2023-09-19T12:27:06;1.57;;;0.70;;
33993;SDS011;20673;48.980;8.138;2023-09-19T12:29:46;2.12;;;0.90;;
33993;SDS011;20673;48.980;8.138;2023-09-19T12:32:14;1.57;;;1.00;;
33993;SDS011;20673;48.980;8.138;2023-09-19T12:34:52;4.20;;;1.17;;
33993;SDS011;20673;48.980;8.138;2023-09-19T12:37:20;2.05;;;0.93;;
33993;SDS011;20673;48.980;8.138;2023-09-19T12:39:51;2.17;;;0.80;;
33993;SDS011;20673;48.980;8.138;2023-09-19T12:42:19;1.55;;;0.90;;
33993;SDS011;20673;48.980;8.138;2023-09-19T12:44:52;1.70;;;0.90;;
33993;SDS011;20673;48.980;8.138;2023-09-19T12:47:21;2.83;;;1.30;;
33993;SDS011;20673;48.980;8.138;2023-09-19T12:52:39;4.47;;;0.85;;
33993;SDS011;20673;48.980;8.138;2023-09-19T12:55:18;2.80;;;1.20;;
33993;SDS011;20673;48.980;8.138;2023-09-19T13:00:45;1.55;;;1.00;;
33993;SDS011;20673;48.980;8.138;2023-09-19T13:05:50;5.28;;;1.00;;
33993;SDS011;20673;48.980;8.138;2023-09-19T13:08:26;2.40;;;0.80;;
33993;SDS011;20673;48.980;8.138;2023-09-19T13:13:45;4.60;;;1.12;;
33993;SDS011;20673;48.980;8.138;2023-09-19T13:19:39;2.27;;;1.07;;
33993;SDS011;20673;48.980;8.138;2023-09-19T13:22:58;4.05;;;1.27;;
33993;SDS011;20673;48.980;8.138;2023-09-19T13:25:07;1.80;;;0.93;;
33993;SDS011;20673;48.980;8.138;2023-09-19T13:27:42;2.05;;;1.10;;
33993;SDS011;20673;48.980;8.138;2023-09-19T13:30:16;2.58;;;0.98;;
33993;SDS011;20673;48.980;8.138;2023-09-19T13:32:44;3.85;;;1.17;;
33993;SDS011;20673;48.980;8.138;2023-09-19T13:35:12;2.67;;;1.00;;
33993;SDS011;20673;48.980;8.138;2023-09-19T13:37:40;4.35;;;1.05;;
33993;SDS011;20673;48.980;8.138;2023-09-19T13:40:08;2.08;;;1.20;;
33993;SDS011;20673;48.980;8.138;2023-09-19T13:42:40;1.52;;;1.10;;
33993;SDS011;20673;48.980;8.138;2023-09-19T13:45:07;2.05;;;0.75;;
33993;SDS011;20673;48.980;8.138;2023-09-19T13:47:36;1.82;;;1.10;;
33993;SDS011;20673;48.980;8.138;2023-09-19T13:50:06;3.00;;;1.02;;
33993;SDS011;20673;48.980;8.138;2023-09-19T13:52:35;2.10;;;1.00;;
33993;SDS011;20673;48.980;8.138;2023-09-19T13:55:02;3.75;;;0.80;;
33993;SDS011;20673;48.980;8.138;2023-09-19T13:57:33;1.52;;;0.78;;
33993;SDS011;20673;48.980;8.138;2023-09-19T13:59:59;3.85;;;1.10;;
33993;SDS011;20673;48.980;8.138;2023-09-19T14:02:25;2.98;;;1.00;;
33993;SDS011;20673;48.980;8.138;2023-09-19T14:04:52;1.15;;;0.75;;
33993;SDS011;20673;48.980;8.138;2023-09-19T14:07:19;3.02;;;0.65;;
33993;SDS011;20673;48.980;8.138;2023-09-19T14:09:45;2.25;;;0.75;;
33993;SDS011;20673;48.980;8.138;2023-09-19T14:12:13;1.07;;;0.70;;
33993;SDS011;20673;48.980;8.138;2023-09-19T14:14:40;2.50;;;0.93;;
33993;SDS011;20673;48.980;8.138;2023-09-19T14:17:06;2.52;;;0.70;;
33993;SDS011;20673;48.980;8.138;2023-09-19T14:19:33;1.70;;;0.93;;
33993;SDS011;20673;48.980;8.138;2023-09-19T14:22:01;1.82;;;1.00;;
33993;SDS011;20673;48.980;8.138;2023-09-19T14:24:30;1.72;;;1.00;;
33993;SDS011;20673;48.980;8.138;2023-09-19T14:26:56;1.70;;;0.68;;
33993;SDS011;20673;48.980;8.138;2023-09-19T14:29:22;1.52;;;0.70;;
33993;SDS011;20673;48.980;8.138;2023-09-19T14:31:48;3.87;;;0.93;;
33993;SDS011;20673;48.980;8.138;2023-09-19T14:34:16;3.75;;;0.78;;
33993;SDS011;20673;48.980;8.138;2023-09-19T14:36:42;3.47;;;1.10;;
33993;SDS011;20673;48.980;8.138;2023-09-19T14:39:08;4.28;;;0.75;;
33993;SDS011;20673;48.980;8.138;2023-09-19T14:41:34;1.82;;;0.88;;
33993;SDS011;20673;48.980;8.138;2023-09-19T14:44:02;2.30;;;0.80;;
33993;SDS011;20673;48.980;8.138;2023-09-19T14:46:30;2.77;;;0.88;;
33993;SDS011;20673;48.980;8.138;2023-09-19T14:48:56;2.05;;;0.90;;
33993;SDS011;20673;48.980;8.138;2023-09-19T14:51:25;2.22;;;1.10;;
33993;SDS011;20673;48.980;8.138;2023-09-19T14:53:51;1.45;;;0.90;;
33993;SDS011;20673;48.980;8.138;2023-09-19T14:56:18;1.57;;;0.60;;
33993;SDS011;20673;48.980;8.138;2023-09-19T14:58:45;1.10;;;0.70;;
33993;SDS011;20673;48.980;8.138;2023-09-19T15:01:12;1.85;;;0.72;;
33993;SDS011;20673;48.980;8.138;2023-09-19T15:03:40;1.62;;;0.85;;
33993;SDS011;20673;48.980;8.138;2023-09-19T15:06:12;2.62;;;0.90;;
33993;SDS011;20673;48.980;8.138;2023-09-19T15:08:43;2.30;;;0.90;;
33993;SDS011;20673;48.980;8.138;2023-09-19T15:11:17;2.02;;;0.80;;
33993;SDS011;20673;48.980;8.138;2023-09-19T15:13:43;1.20;;;0.70;;
33993;SDS011;20673;48.980;8.138;2023-09-19T15:16:11;2.70;;;0.95;;
33993;SDS011;20673;48.980;8.138;2023-09-19T15:18:39;1.27;;;0.72;;
33993;SDS011;20673;48.980;8.138;2023-09-19T15:21:07;1.65;;;0.78;;
33993;SDS011;20673;48.980;8.138;2023-09-19T15:23:36;3.65;;;1.00;;
33993;SDS011;20673;48.980;8.138;2023-09-19T15:26:04;2.55;;;1.00;;
33993;SDS011;20673;48.980;8.138;2023-09-19T15:28:32;1.27;;;0.80;;
33993;SDS011;20673;48.980;8.138;2023-09-19T15:31:03;3.92;;;0.95;;
33993;SDS011;20673;48.980;8.138;2023-09-19T15:33:36;3.05;;;0.90;;
33993;SDS011;20673;48.980;8.138;2023-09-19T15:36:03;1.85;;;0.93;;
33993;SDS011;20673;48.980;8.138;2023-09-19T15:41:23;3.12;;;0.80;;
33993;SDS011;20673;48.980;8.138;2023-09-19T15:43:53;2.98;;;0.88;;
33993;SDS011;20673;48.980;8.138;2023-09-19T15:46:20;1.45;;;0.80;;
33993;SDS011;20673;48.980;8.138;2023-09-19T15:48:47;1.92;;;0.98;;
33993;SDS011;20673;48.980;8.138;2023-09-19T15:51:13;4.95;;;2.33;;
33993;SDS011;20673;48.980;8.138;2023-09-19T15:53:43;2.12;;;1.00;;
33993;SDS011;20673;48.980;8.138;2023-09-19T15:56:14;3.10;;;1.30;;
33993;SDS011;20673;48.980;8.138;2023-09-19T15:58:44;2.15;;;0.70;;
33993;SDS011;20673;48.980;8.138;2023-09-19T16:01:12;1.77;;;0.70;;
33993;SDS011;20673;48.980;8.138;2023-09-19T16:03:45;11.53;;;8.20;;